Time;durP1;ratioP1;P1;durP2;ratioP2;P2;SDS_P1;SDS_P2;PMS_P1;PMS_P2;Temp;Humidity;BMP_temperature;BMP_pressure;BME280_temperature;BME280_humidity;BME280_pressure;Samples;Min_cycle;Max_cycle;Signal;HPM_P1;HPM_P2
2022/11/29 00:00:36;;;;;;;33.03;22.77;;;;;;;8.35;77.90;101354.63;5027110;28;20148;-61
2022/11/29 00:03:01;;;;;;;27.90;22.65;;;;;;;8.36;78.06;101350.78;5025331;28;20037;-61
2022/11/29 00:05:27;;;;;;;28.95;21.95;;;;;;;8.38;77.99;101350.59;5027381;28;20094;-61
2022/11/29 00:07:55;;;;;;;30.40;23.10;;;;;;;8.37;78.17;101348.94;5026722;28;20037;-61
2022/11/29 00:10:20;;;;;;;29.65;22.88;;;;;;;8.36;78.38;101353.56;5035701;28;20062;-61
2022/11/29 00:12:47;;;;;;;28.58;21.88;;;;;;;8.36;78.16;101348.00;5038583;28;20022;-62
2022/11/29 00:15:13;;;;;;;29.30;21.75;;;;;;;8.38;78.80;101349.75;5023670;28;20025;-61
2022/11/29 00:17:41;;;;;;;26.15;20.55;;;;;;;8.37;78.83;101354.47;5025868;28;20033;-61
2022/11/29 00:20:09;;;;;;;29.35;20.02;;;;;;;8.35;78.25;101357.41;5027729;28;20021;-61
2022/11/29 00:22:34;;;;;;;26.00;19.50;;;;;;;8.36;78.52;101358.25;5030289;28;20037;-61
2022/11/29 00:24:59;;;;;;;26.58;20.02;;;;;;;8.35;78.53;101364.84;5040100;28;20036;-62
2022/11/29 00:27:25;;;;;;;27.60;20.02;;;;;;;8.36;78.59;101361.00;5026817;28;20033;-61
2022/11/29 00:29:50;;;;;;;29.00;20.13;;;;;;;8.35;78.47;101368.47;5035757;28;20118;-61
2022/11/29 00:32:15;;;;;;;24.08;18.88;;;;;;;8.35;78.86;101365.69;5049261;28;20030;-61
2022/11/29 00:34:40;;;;;;;28.45;19.98;;;;;;;8.35;78.29;101362.09;5038754;28;20095;-62
2022/11/29 00:37:06;;;;;;;27.58;19.88;;;;;;;8.35;78.58;101364.84;5037520;28;20048;-61
2022/11/29 00:39:31;;;;;;;24.67;19.13;;;;;;;8.38;78.29;101366.38;5032206;28;20473;-61
2022/11/29 00:41:56;;;;;;;23.98;19.73;;;;;;;8.34;78.54;101365.94;5027427;28;20045;-62
2022/11/29 00:44:22;;;;;;;23.40;19.58;;;;;;;8.34;78.50;101364.00;5024917;28;20044;-61
2022/11/29 00:46:47;;;;;;;25.02;18.52;;;;;;;8.32;78.71;101363.38;5028516;28;20078;-61
2022/11/29 00:49:13;;;;;;;22.45;18.85;;;;;;;8.30;78.38;101361.94;5044091;28;20018;-61
2022/11/29 00:51:38;;;;;;;25.02;18.13;;;;;;;8.30;78.02;101361.94;5032541;28;20125;-61
2022/11/29 00:54:03;;;;;;;24.92;18.45;;;;;;;8.30;78.06;101356.41;5023074;28;20025;-61
2022/11/29 00:56:29;;;;;;;24.17;19.52;;;;;;;8.29;78.06;101360.22;5023124;28;20083;-61
2022/11/29 00:58:54;;;;;;;26.75;19.45;;;;;;;8.28;78.60;101361.28;5027873;28;20061;-61
2022/11/29 01:01:19;;;;;;;24.45;19.00;;;;;;;8.28;77.75;101358.53;5027044;28;20041;-61
2022/11/29 01:03:45;;;;;;;22.58;18.67;;;;;;;8.24;78.51;101352.59;5023830;28;20485;-61
2022/11/29 01:06:13;;;;;;;21.88;18.45;;;;;;;8.25;78.14;101364.50;5033012;28;20036;-61
2022/11/29 01:08:38;;;;;;;21.83;17.92;;;;;;;8.22;78.04;101360.28;5034180;28;20054;-61
2022/11/29 01:11:09;;;;;;;22.10;17.80;;;;;;;8.21;78.25;101361.34;5040267;28;20025;-61
2022/11/29 01:13:35;;;;;;;26.83;18.42;;;;;;;8.22;78.09;101359.44;5046981;28;20112;-61
2022/11/29 01:16:01;;;;;;;28.00;18.88;;;;;;;8.23;78.57;101363.91;5026126;28;20522;-61
2022/11/29 01:18:27;;;;;;;29.02;18.20;;;;;;;8.22;78.03;101364.97;5025006;28;20113;-61
2022/11/29 01:21:05;;;;;;;29.92;18.77;;;;;;;8.21;78.57;101374.31;5029654;28;20535;-61
2022/11/29 01:23:31;;;;;;;26.67;18.15;;;;;;;8.22;78.25;101373.28;5024980;28;20042;-61
2022/11/29 01:26:02;;;;;;;27.38;18.83;;;;;;;8.20;77.68;101367.09;5023792;28;20060;-61
2022/11/29 01:28:28;;;;;;;29.50;18.15;;;;;;;8.18;78.16;101370.09;5037822;28;20025;-61
2022/11/29 01:30:54;;;;;;;32.85;20.48;;;;;;;8.17;78.17;101375.84;5032176;28;20025;-61
2022/11/29 01:33:19;;;;;;;29.83;19.65;;;;;;;8.17;78.17;101375.84;5043369;28;20397;-61
2022/11/29 01:35:53;;;;;;;28.33;20.30;;;;;;;8.15;78.61;101380.75;5033992;28;20051;-61
2022/11/29 01:38:23;;;;;;;26.92;19.52;;;;;;;8.14;77.97;101388.22;5019925;28;20439;-61
2022/11/29 01:41:11;;;;;;;28.05;19.70;;;;;;;8.21;78.54;101382.63;5042150;28;20029;-61
2022/11/29 01:44:12;;;;;;;29.55;19.25;;;;;;;8.21;78.63;101386.22;5040850;28;20495;-62
2022/11/29 01:46:40;;;;;;;30.42;20.48;;;;;;;8.13;78.41;101392.03;5024258;28;20753;-61
2022/11/29 01:49:29;;;;;;;29.33;21.27;;;;;;;8.11;78.58;101394.19;5027317;28;20060;-61
2022/11/29 01:51:59;;;;;;;33.97;21.88;;;;;;;8.10;78.49;101395.25;5028582;28;20033;-61
2022/11/29 01:54:36;;;;;;;30.90;22.80;;;;;;;8.11;78.30;101399.72;5045169;28;20396;-61
2022/11/29 01:57:04;;;;;;;34.30;23.02;;;;;;;8.09;78.03;101393.53;5038971;28;20029;-61
2022/11/29 01:59:30;;;;;;;32.58;22.90;;;;;;;8.10;78.53;101398.88;5045616;28;20033;-61
2022/11/29 02:02:04;;;;;;;30.73;23.17;;;;;;;8.09;78.63;101402.69;5027683;28;20340;-61
2022/11/29 02:04:36;;;;;;;31.00;20.50;;;;;;;8.11;79.32;101414.38;5043159;28;20032;-61
2022/11/29 02:07:02;;;;;;;28.00;21.15;;;;;;;8.10;78.59;101409.09;5039411;28;20036;-61
2022/11/29 02:09:27;;;;;;;29.92;21.73;;;;;;;8.10;79.28;101421.00;5037404;28;20120;-61
2022/11/29 02:11:58;;;;;;;36.33;22.00;;;;;;;8.12;78.95;101418.00;5046815;28;20146;-61
2022/11/29 02:14:29;;;;;;;34.65;22.50;;;;;;;8.11;79.74;101419.91;5029099;28;20037;-61
2022/11/29 02:17:07;;;;;;;33.83;22.48;;;;;;;8.16;79.75;101418.41;5024698;28;20036;-62
2022/11/29 02:19:47;;;;;;;30.15;20.65;;;;;;;8.15;79.48;101422.25;5027924;28;20037;-61
2022/11/29 02:22:45;;;;;;;30.35;20.10;;;;;;;8.19;79.70;101426.25;5037170;28;20033;-62
2022/11/29 02:25:22;;;;;;;27.48;20.48;;;;;;;8.15;79.79;101425.00;5028594;28;20044;-61
2022/11/29 02:28:12;;;;;;;26.25;19.85;;;;;;;8.20;79.97;101426.00;5025705;28;20044;-61
2022/11/29 02:31:10;;;;;;;25.95;19.35;;;;;;;8.16;79.34;101435.00;5037222;28;20025;-61
2022/11/29 02:34:09;;;;;;;22.98;18.27;;;;;;;8.20;79.36;101425.16;5027579;28;20038;-61
2022/11/29 02:36:56;;;;;;;25.73;19.35;;;;;;;8.14;79.62;101431.63;5022802;28;20117;-61
2022/11/29 02:39:49;;;;;;;22.60;18.17;;;;;;;8.14;79.79;101421.41;5021104;28;20113;-61
2022/11/29 02:42:47;;;;;;;;;;;;;;;8.28;79.24;101420.22;5029530;28;20051;-62
2022/11/29 02:45:31;;;;;;;21.25;18.73;;;;;;;8.19;79.59;101423.50;5038722;28;19971;-62
2022/11/29 02:48:29;;;;;;;18.80;16.70;;;;;;;8.16;79.28;101419.25;5036261;28;20113;-61
2022/11/29 02:51:04;;;;;;;19.13;16.90;;;;;;;8.10;79.44;101426.53;5016549;28;20052;-62
2022/11/29 02:53:51;;;;;;;20.63;18.30;;;;;;;8.14;79.21;101420.56;5036470;28;20040;-61
2022/11/29 02:56:38;;;;;;;24.63;18.95;;;;;;;8.09;79.53;101424.81;5020062;28;20033;-61
2022/11/29 02:59:11;;;;;;;23.02;18.75;;;;;;;8.09;79.52;101432.25;5041025;28;20040;-61
2022/11/29 03:02:17;;;;;;;22.23;18.10;;;;;;;8.15;79.11;101438.84;5032158;28;20120;-62
2022/11/29 03:04:50;;;;;;;22.33;17.95;;;;;;;8.11;79.50;101435.66;5023724;28;20034;-61
2022/11/29 03:07:18;;;;;;;18.50;16.55;;;;;;;8.09;79.81;101443.31;5030921;28;20025;-61
2022/11/29 03:09:57;;;;;;;23.40;18.20;;;;;;;8.09;79.74;101437.78;5030375;28;20033;-61
2022/11/29 03:12:42;;;;;;;23.55;17.00;;;;;;;8.09;79.59;101446.91;5028679;28;20033;-61
2022/11/29 03:15:31;;;;;;;20.60;18.00;;;;;;;8.07;79.11;101448.25;5023604;28;20084;-61
2022/11/29 03:18:26;;;;;;;20.17;17.75;;;;;;;8.07;79.36;101451.84;5026402;28;20370;-61
2022/11/29 03:21:13;;;;;;;19.27;17.27;;;;;;;8.02;79.13;101454.44;5028240;28;20033;-61
2022/11/29 03:23:46;;;;;;;19.95;17.13;;;;;;;8.00;79.12;101456.56;5023919;28;20029;-61
2022/11/29 03:26:25;;;;;;;19.02;17.00;;;;;;;7.99;79.10;101454.88;5046061;28;20022;-61
2022/11/29 03:29:00;;;;;;;20.17;17.15;;;;;;;7.95;79.03;101461.91;5039057;28;20106;-61
2022/11/29 03:31:32;;;;;;;19.85;17.00;;;;;;;7.95;79.03;101463.84;5030347;28;20385;-61
2022/11/29 03:34:09;;;;;;;;;;;;;;;8.11;79.44;101466.91;5027864;28;20163;-61
2022/11/29 03:37:13;;;;;;;19.02;17.02;;;;;;;7.96;78.85;101469.13;5023501;28;19925;-61
2022/11/29 03:39:49;;;;;;;17.08;15.48;;;;;;;7.95;78.61;101466.59;5003241;28;20045;-61
2022/11/29 03:42:39;;;;;;;18.08;16.33;;;;;;;7.97;79.07;101473.56;5005019;28;20041;-61
2022/11/29 03:45:17;;;;;;;19.30;16.60;;;;;;;7.91;78.44;101479.16;5030265;28;20130;-61
2022/11/29 03:47:55;;;;;;;16.45;14.95;;;;;;;7.89;78.89;101473.84;5037029;28;20032;-61
2022/11/29 03:50:27;;;;;;;18.20;16.40;;;;;;;7.87;78.98;101487.03;5026820;28;20041;-61
2022/11/29 03:53:00;;;;;;;18.08;16.25;;;;;;;7.86;78.98;101483.44;5020772;28;20017;-61
2022/11/29 03:56:07;;;;;;;17.40;15.70;;;;;;;7.87;79.27;101478.75;5022970;28;20146;-60
2022/11/29 03:58:54;;;;;;;18.85;16.98;;;;;;;7.92;78.85;101490.00;5017689;28;20377;-61
2022/11/29 04:01:19;;;;;;;16.65;15.05;;;;;;;7.87;78.13;101495.34;5022843;28;20029;-61
2022/11/29 04:04:09;;;;;;;18.63;15.43;;;;;;;7.83;78.88;101496.84;5020815;28;20033;-60
2022/11/29 04:06:49;;;;;;;21.50;16.10;;;;;;;7.82;78.82;101503.41;5021149;28;20053;-61
2022/11/29 04:09:40;;;;;;;16.10;14.40;;;;;;;7.81;78.36;101498.97;5026499;28;20374;-61
2022/11/29 04:12:33;;;;;;;17.90;15.50;;;;;;;7.81;78.73;101510.88;5026174;28;20507;-61
2022/11/29 04:15:35;;;;;;;16.45;14.88;;;;;;;7.83;78.63;101507.91;5033124;28;20033;-60
2022/11/29 04:18:43;;;;;;;16.95;15.32;;;;;;;7.85;78.64;101512.13;5029220;28;20069;-61
2022/11/29 04:21:50;;;;;;;18.98;15.07;;;;;;;7.82;78.73;101511.72;5020558;28;20113;-61
2022/11/29 04:24:28;;;;;;;17.27;15.02;;;;;;;7.78;78.20;101508.56;5026691;28;20075;-61
2022/11/29 04:27:27;;;;;;;16.48;14.80;;;;;;;7.77;78.89;101519.81;5028166;28;20037;-60
2022/11/29 04:30:10;;;;;;;16.05;14.55;;;;;;;7.76;78.53;101512.59;5021673;28;20025;-61
2022/11/29 04:32:50;;;;;;;20.73;14.82;;;;;;;7.71;78.36;101516.03;5022741;28;20037;-61
2022/11/29 04:35:47;;;;;;;15.52;14.07;;;;;;;7.72;79.03;101512.19;5026735;28;20041;-61
2022/11/29 04:38:50;;;;;;;25.25;14.60;;;;;;;7.72;78.29;101516.88;5026274;28;20043;-61
2022/11/29 04:41:43;;;;;;;16.50;13.23;;;;;;;7.71;78.63;101516.03;5018556;28;20056;-61
2022/11/29 04:44:17;;;;;;;20.15;13.90;;;;;;;7.62;78.03;101522.84;5029089;28;20052;-61
2022/11/29 04:47:13;;;;;;;14.45;13.07;;;;;;;7.63;78.46;101524.56;5035385;28;20040;-61
2022/11/29 04:49:57;;;;;;;13.93;12.55;;;;;;;7.58;77.70;101516.91;5025688;28;20022;-61
2022/11/29 04:52:41;;;;;;;14.02;12.65;;;;;;;7.62;78.15;101525.59;5032330;28;20044;-61
2022/11/29 04:55:54;;;;;;;14.70;13.20;;;;;;;7.57;77.95;101520.72;5022480;28;20436;-61
2022/11/29 04:59:00;;;;;;;17.13;14.98;;;;;;;7.60;77.77;101524.97;4995358;28;20036;-60
2022/11/29 05:02:12;;;;;;;17.63;14.02;;;;;;;7.61;77.77;101533.03;4980409;28;20045;-61
2022/11/29 05:04:52;;;;;;;21.00;14.38;;;;;;;7.54;78.24;101532.22;4999028;28;20160;-61
2022/11/29 05:07:54;;;;;;;18.77;14.25;;;;;;;7.56;78.32;101543.91;5031340;28;20040;-60
2022/11/29 05:10:43;;;;;;;16.98;13.98;;;;;;;7.51;78.36;101543.72;5023902;28;20040;-60
2022/11/29 05:13:42;;;;;;;14.55;13.05;;;;;;;7.56;78.70;101546.66;5026913;28;20068;-61
2022/11/29 05:16:23;;;;;;;15.75;13.90;;;;;;;7.51;78.20;101549.22;5028735;28;20070;-61
2022/11/29 05:19:17;;;;;;;16.25;13.80;;;;;;;7.54;77.88;101559.81;5032077;28;20373;-60
2022/11/29 05:22:20;;;;;;;17.90;14.52;;;;;;;7.53;78.09;101558.13;5023308;28;20558;-60
2022/11/29 05:25:12;;;;;;;14.45;13.13;;;;;;;7.52;77.24;101569.41;5021242;28;20085;-60
2022/11/29 05:28:08;;;;;;;16.25;13.82;;;;;;;7.52;77.74;101572.19;5022348;28;20040;-61
2022/11/29 05:31:01;;;;;;;15.57;13.98;;;;;;;7.54;77.61;101572.78;5023377;28;20041;-60
2022/11/29 05:33:41;;;;;;;;;;;;;;;7.68;77.71;101574.47;5029259;28;20025;-61
2022/11/29 05:36:28;;;;;;;15.43;13.75;;;;;;;7.55;77.28;101580.88;5042745;28;20269;-61
2022/11/29 05:39:17;;;;;;;15.55;13.93;;;;;;;7.52;77.50;101581.31;5021167;28;20391;-61
2022/11/29 05:41:56;;;;;;;15.02;13.52;;;;;;;7.52;77.76;101586.84;5018834;28;20033;-61
2022/11/29 05:44:30;;;;;;;16.25;14.55;;;;;;;7.50;78.06;101586.19;5024620;28;20037;-61
2022/11/29 05:47:00;;;;;;;14.50;13.00;;;;;;;7.48;77.59;101593.84;5023698;28;20425;-61
2022/11/29 05:49:31;;;;;;;16.10;14.23;;;;;;;7.50;78.06;101590.88;5027401;28;20033;-61
2022/11/29 05:52:19;;;;;;;16.58;14.52;;;;;;;7.53;77.51;101604.25;5025970;28;20025;-61
2022/11/29 05:55:09;;;;;;;15.00;13.50;;;;;;;7.50;77.82;101597.25;5025209;28;20045;-61
2022/11/29 05:57:58;;;;;;;18.05;14.23;;;;;;;7.47;77.99;101602.38;5023765;28;20041;-61
2022/11/29 06:00:28;;;;;;;18.35;14.55;;;;;;;7.45;77.13;101615.53;5023864;28;20040;-61
2022/11/29 06:03:16;;;;;;;18.65;15.27;;;;;;;7.49;77.76;101598.31;5028426;28;20064;-61
2022/11/29 06:05:56;;;;;;;20.23;16.23;;;;;;;7.50;77.38;101605.53;5025950;28;20143;-61
2022/11/29 06:08:35;;;;;;;20.75;17.10;;;;;;;7.49;77.72;101614.03;5021323;28;20032;-61
2022/11/29 06:11:16;;;;;;;21.23;17.08;;;;;;;7.48;77.91;101617.88;5040243;28;20421;-61
2022/11/29 06:14:01;;;;;;;19.20;15.63;;;;;;;7.52;78.04;101617.22;5025371;28;20112;-61
2022/11/29 06:16:33;;;;;;;18.45;15.88;;;;;;;7.51;78.55;101631.25;5023638;28;20044;-61
2022/11/29 06:19:30;;;;;;;17.88;15.80;;;;;;;7.53;78.45;101638.25;5029410;28;20060;-60
2022/11/29 06:22:10;;;;;;;18.60;16.60;;;;;;;7.49;78.41;101642.50;5025787;28;20043;-60
2022/11/29 06:25:05;;;;;;;18.98;14.88;;;;;;;7.46;77.73;101640.16;5042706;28;20039;-61
2022/11/29 06:28:07;;;;;;;17.30;14.82;;;;;;;7.51;78.30;101643.16;5021020;28;20098;-61
2022/11/29 06:30:53;;;;;;;20.23;15.87;;;;;;;7.53;77.73;101645.69;5022370;28;20036;-60
2022/11/29 06:33:31;;;;;;;19.75;14.98;;;;;;;7.52;78.30;101644.84;5035512;28;20052;-61
2022/11/29 06:36:08;;;;;;;22.63;15.70;;;;;;;7.50;77.80;101659.94;5043003;28;20052;-60
2022/11/29 06:38:34;;;;;;;20.90;15.27;;;;;;;7.48;77.53;101660.16;5022019;28;20099;-61
2022/11/29 06:40:59;;;;;;;19.65;16.15;;;;;;;7.49;77.66;101663.75;5022804;28;20465;-61
2022/11/29 06:43:25;;;;;;;20.25;16.65;;;;;;;7.47;78.15;101669.50;5035019;28;20045;-61
2022/11/29 06:45:59;;;;;;;20.55;15.90;;;;;;;7.46;77.90;101662.25;5024195;28;20045;-61
2022/11/29 06:48:29;;;;;;;21.27;15.57;;;;;;;7.47;78.11;101669.50;5039407;28;20579;-61
2022/11/29 06:51:17;;;;;;;21.15;15.13;;;;;;;7.51;78.78;101665.25;5028827;28;20030;-61
2022/11/29 06:54:10;;;;;;;17.38;15.40;;;;;;;7.53;78.29;101678.84;5044699;28;20032;-61
2022/11/29 06:56:50;;;;;;;19.90;14.90;;;;;;;7.54;78.44;101677.78;5020283;28;20111;-60
2022/11/29 06:59:34;;;;;;;18.10;14.52;;;;;;;7.50;78.17;101682.88;5036053;28;20018;-61
2022/11/29 07:02:28;;;;;;;20.08;15.45;;;;;;;7.51;77.89;101681.84;5022167;28;20029;-60
2022/11/29 07:05:14;;;;;;;18.30;15.05;;;;;;;7.50;78.55;101685.63;5021324;28;20018;-61
2022/11/29 07:07:40;;;;;;;18.92;14.43;;;;;;;7.47;78.35;101685.25;5021532;28;20026;-61
2022/11/29 07:10:12;;;;;;;18.08;15.02;;;;;;;7.50;78.39;101690.31;5025429;28;20060;-60
2022/11/29 07:12:37;;;;;;;23.38;15.55;;;;;;;7.47;78.68;101688.84;5025250;28;20132;-61
2022/11/29 07:15:03;;;;;;;21.05;15.23;;;;;;;7.49;78.54;101689.47;5038510;28;20108;-61
2022/11/29 07:17:40;;;;;;;22.45;16.63;;;;;;;7.51;79.00;101698.41;5032782;28;20017;-60
2022/11/29 07:20:19;;;;;;;22.10;15.65;;;;;;;7.48;79.07;101695.22;5043848;28;20362;-61
2022/11/29 07:23:02;;;;;;;21.70;15.18;;;;;;;7.49;78.43;101700.50;5029441;28;20045;-61
2022/11/29 07:26:16;;;;;;;22.13;16.00;;;;;;;7.52;78.46;101707.53;5023043;28;20476;-61
2022/11/29 07:29:00;;;;;;;21.17;15.05;;;;;;;7.51;78.78;101712.22;5016364;28;20391;-61
2022/11/29 07:31:44;;;;;;;26.77;16.65;;;;;;;7.55;78.52;101719.03;5027436;28;20037;-61
2022/11/29 07:34:27;;;;;;;26.98;17.10;;;;;;;7.52;78.85;101722.19;5027267;28;20046;-61
2022/11/29 07:37:01;;;;;;;27.42;17.80;;;;;;;7.53;78.34;101718.38;5024044;28;20060;-61
2022/11/29 07:39:55;;;;;;;26.13;18.45;;;;;;;7.57;78.96;101718.78;5022283;28;20037;-60
2022/11/29 07:42:43;;;;;;;29.25;19.67;;;;;;;7.53;79.13;101728.56;5024977;28;20040;-61
2022/11/29 07:45:34;;;;;;;29.83;19.30;;;;;;;7.54;78.99;101730.25;5029058;28;20030;-60
2022/11/29 07:48:00;;;;;;;31.75;21.15;;;;;;;7.52;78.95;101740.69;5027008;28;20044;-60
2022/11/29 07:50:27;;;;;;;30.45;20.85;;;;;;;7.52;78.80;101738.78;5031225;28;20033;-60
2022/11/29 07:52:54;;;;;;;31.50;20.98;;;;;;;7.51;78.83;101734.31;5041835;28;20143;-60
2022/11/29 07:55:24;;;;;;;32.10;19.13;;;;;;;7.53;78.69;101731.34;5037376;28;20025;-60
2022/11/29 07:57:50;;;;;;;34.33;19.45;;;;;;;7.56;79.68;101742.81;5030327;28;20080;-60
2022/11/29 08:00:17;;;;;;;32.30;18.60;;;;;;;7.58;79.23;101737.06;5037846;28;20036;-60
2022/11/29 08:02:42;;;;;;;30.75;18.00;;;;;;;7.56;79.68;101733.69;5030426;28;20026;-60
2022/11/29 08:05:08;;;;;;;36.75;19.42;;;;;;;7.57;79.53;101736.22;5041911;28;20087;-60
2022/11/29 08:07:36;;;;;;;34.17;17.88;;;;;;;7.56;79.28;101739.22;5040813;28;20040;-59
2022/11/29 08:10:03;;;;;;;33.75;18.02;;;;;;;7.53;79.68;101745.16;5038942;28;20029;-61
2022/11/29 08:12:29;;;;;;;33.72;18.15;;;;;;;7.54;79.23;101747.69;5030173;28;20026;-60
2022/11/29 08:14:54;;;;;;;30.45;17.48;;;;;;;7.54;80.07;101747.69;5022489;28;20032;-60
2022/11/29 08:17:19;;;;;;;35.85;17.58;;;;;;;7.57;79.64;101747.28;5026601;28;20064;-60
2022/11/29 08:19:45;;;;;;;34.97;19.33;;;;;;;7.57;79.73;101749.19;5036502;28;20136;-60
2022/11/29 08:22:11;;;;;;;33.15;17.73;;;;;;;7.54;79.80;101753.22;5037064;28;20036;-59
2022/11/29 08:24:36;;;;;;;32.65;18.95;;;;;;;7.53;79.78;101754.28;5043019;28;20048;-60
2022/11/29 08:27:05;;;;;;;35.58;19.38;;;;;;;7.56;80.19;101745.56;5025618;28;20183;-60
2022/11/29 08:29:30;;;;;;;34.85;19.85;;;;;;;7.54;79.97;101746.84;5029785;28;20309;-60
2022/11/29 08:31:56;;;;;;;32.78;19.38;;;;;;;7.56;79.88;101756.63;5028345;28;20079;-61
2022/11/29 08:34:23;;;;;;;34.92;20.70;;;;;;;7.57;79.88;101757.47;5044031;28;20047;-61
2022/11/29 08:36:49;;;;;;;31.58;20.08;;;;;;;7.60;79.67;101760.66;5028098;28;20035;-60
2022/11/29 08:39:14;;;;;;;31.40;21.52;;;;;;;7.61;80.44;101767.03;5039398;28;20029;-60
2022/11/29 08:41:40;;;;;;;34.72;21.50;;;;;;;7.63;79.54;101753.88;5031607;28;20041;-60
2022/11/29 08:44:05;;;;;;;35.55;21.73;;;;;;;7.64;79.65;101761.09;5029951;28;20030;-61
2022/11/29 08:49:15;;;;;;;34.63;21.38;;;;;;;7.63;80.41;101771.31;5037848;28;20117;-61
2022/11/29 08:51:40;;;;;;;38.25;21.70;;;;;;;7.65;79.90;101770.22;5046769;28;20116;-60
2022/11/29 08:54:06;;;;;;;37.53;21.13;;;;;;;7.66;80.30;101774.69;5031632;28;20051;-62
2022/11/29 08:56:31;;;;;;;40.88;22.00;;;;;;;7.62;79.39;101777.91;5042808;28;20033;-61
2022/11/29 08:58:56;;;;;;;36.67;21.80;;;;;;;7.63;80.14;101787.03;5036693;28;20136;-61
2022/11/29 09:01:21;;;;;;;37.78;21.23;;;;;;;7.66;80.47;101780.22;5026239;28;20029;-61
2022/11/29 09:04:01;;;;;;;35.35;20.92;;;;;;;7.67;80.45;101784.72;5036013;28;20120;-61
2022/11/29 09:06:32;;;;;;;38.40;21.65;;;;;;;7.66;79.58;101782.97;5025613;28;20021;-61
2022/11/29 09:09:01;;;;;;;37.92;21.65;;;;;;;7.65;80.55;101782.13;5037207;28;20144;-61
2022/11/29 09:11:28;;;;;;;36.42;21.55;;;;;;;7.68;80.70;101790.00;5030667;28;20384;-61
2022/11/29 09:13:57;;;;;;;36.00;21.38;;;;;;;7.66;80.29;101797.66;5034517;28;20029;-61
2022/11/29 09:16:25;;;;;;;42.08;22.05;;;;;;;7.69;80.73;101797.22;5046008;28;20533;-61
2022/11/29 09:18:53;;;;;;;40.90;23.08;;;;;;;7.71;81.21;101797.88;5029214;28;20111;-59
2022/11/29 09:21:18;;;;;;;46.00;23.58;;;;;;;7.68;81.18;101798.28;5020909;28;20029;-60
2022/11/29 09:23:47;;;;;;;47.15;23.77;;;;;;;7.73;81.03;101797.66;5027933;28;20044;-59
2022/11/29 09:26:18;;;;;;;39.90;22.77;;;;;;;7.73;81.21;101800.41;5026695;28;20065;-59
2022/11/29 09:28:44;;;;;;;42.67;23.35;;;;;;;7.72;81.60;101807.88;5031632;28;20117;-59
2022/11/29 09:31:13;;;;;;;42.80;23.02;;;;;;;7.75;81.66;101809.38;5031965;28;20064;-58
2022/11/29 09:33:39;;;;;;;38.38;21.65;;;;;;;7.78;81.08;101809.81;5043299;28;20060;-58
2022/11/29 09:36:07;;;;;;;47.55;22.48;;;;;;;7.74;81.42;101818.69;5029421;28;20049;-59
2022/11/29 09:38:33;;;;;;;48.70;23.77;;;;;;;7.76;81.72;101816.59;5030312;28;20139;-58
2022/11/29 09:41:41;;;;;;;43.50;23.33;;;;;;;7.83;81.81;101828.50;5036230;28;20043;-58
2022/11/29 09:44:24;;;;;;;44.88;23.20;;;;;;;7.80;82.12;101832.53;5026440;28;20068;-57
2022/11/29 09:47:11;;;;;;;43.67;23.33;;;;;;;7.84;81.84;101830.19;5030898;28;20041;-57
2022/11/29 09:49:37;;;;;;;47.97;23.13;;;;;;;7.84;81.45;101838.50;5042979;28;20025;-57
2022/11/29 09:52:14;;;;;;;47.33;23.05;;;;;;;7.88;82.40;101837.00;5033370;28;20048;-57
2022/11/29 09:54:57;;;;;;;42.33;23.10;;;;;;;7.88;82.18;101842.53;5017692;28;20025;-58
2022/11/29 09:57:25;;;;;;;48.10;22.67;;;;;;;7.86;82.02;101840.00;5029802;28;20052;-58
2022/11/29 09:59:55;;;;;;;39.60;22.73;;;;;;;7.92;82.02;101835.53;5031133;28;20029;-57
2022/11/29 10:02:30;;;;;;;35.42;19.88;;;;;;;7.95;82.52;101837.88;5036243;28;21092;-57
2022/11/29 10:05:20;;;;;;;27.00;15.82;;;;;;;7.98;81.89;101847.66;5039237;28;20033;-57
2022/11/29 10:07:51;;;;;;;25.95;14.52;;;;;;;7.93;82.04;101851.03;5025892;28;20183;-57
2022/11/29 10:10:26;;;;;;;29.77;14.88;;;;;;;7.96;82.92;101839.56;5046328;28;20037;-58
2022/11/29 10:13:02;;;;;;;31.60;17.75;;;;;;;7.99;82.26;101847.44;5028486;28;20029;-58
2022/11/29 10:15:33;;;;;;;34.25;19.15;;;;;;;7.99;82.72;101838.31;5042217;28;20079;-58
2022/11/29 10:18:14;;;;;;;33.13;18.85;;;;;;;8.02;82.41;101841.50;5034446;28;20036;-57
2022/11/29 10:20:43;;;;;;;34.45;19.17;;;;;;;8.03;82.91;101836.81;5019813;28;20033;-58
2022/11/29 10:23:24;;;;;;;33.38;18.75;;;;;;;8.04;82.30;101836.59;5029465;28;20044;-58
2022/11/29 10:25:52;;;;;;;31.40;18.00;;;;;;;8.04;82.59;101836.59;5030059;28;20060;-59
2022/11/29 10:28:31;;;;;;;32.33;18.02;;;;;;;8.05;82.78;101838.28;5028354;28;20029;-58
2022/11/29 10:31:19;;;;;;;33.10;18.52;;;;;;;8.08;82.87;101835.09;5028510;28;20026;-58
2022/11/29 10:33:45;;;;;;;35.47;19.42;;;;;;;8.07;83.18;101827.88;5029028;28;20374;-60
2022/11/29 10:36:21;;;;;;;31.67;17.38;;;;;;;8.09;82.67;101830.41;5023571;28;20037;-59
2022/11/29 10:38:49;;;;;;;35.92;18.73;;;;;;;8.09;82.97;101836.78;5019743;28;20080;-58
2022/11/29 10:41:21;;;;;;;29.77;17.13;;;;;;;8.11;83.00;101826.38;5026802;28;20072;-58
2022/11/29 10:43:48;;;;;;;32.95;17.27;;;;;;;8.09;82.60;101822.13;5024715;28;20029;-59
2022/11/29 10:46:29;;;;;;;31.85;17.33;;;;;;;8.13;82.96;101834.44;5027047;28;20076;-59
2022/11/29 10:48:56;;;;;;;37.78;18.20;;;;;;;8.10;82.93;101835.75;5028033;28;20550;-60
2022/11/29 10:51:21;;;;;;;31.92;17.67;;;;;;;8.11;82.90;101840.22;5025536;28;20041;-58
2022/11/29 10:53:51;;;;;;;31.95;18.23;;;;;;;8.13;83.01;101842.75;5028248;28;20100;-59
2022/11/29 10:56:29;;;;;;;30.63;17.90;;;;;;;8.14;83.44;101843.63;5026735;28;20026;-59
2022/11/29 10:59:04;;;;;;;31.75;19.10;;;;;;;8.10;82.94;101846.81;5028977;28;20441;-59
2022/11/29 11:01:37;;;;;;;34.10;19.55;;;;;;;8.16;82.67;101847.84;5028450;28;20113;-60
2022/11/29 11:04:06;;;;;;;31.95;18.30;;;;;;;8.14;82.57;101846.41;5029030;28;20025;-60
2022/11/29 11:06:45;;;;;;;32.65;18.92;;;;;;;8.16;82.68;101838.72;5025302;28;20034;-59
2022/11/29 11:09:20;;;;;;;35.53;18.45;;;;;;;8.15;82.77;101843.41;5019876;28;20033;-59
2022/11/29 11:11:51;;;;;;;31.38;18.95;;;;;;;8.15;82.70;101840.63;5024805;28;20124;-60
2022/11/29 11:14:21;;;;;;;34.90;19.40;;;;;;;8.16;83.05;101841.47;5024794;28;20033;-59
2022/11/29 11:16:46;;;;;;;31.25;18.48;;;;;;;8.13;82.60;101845.50;5028092;28;20538;-60
2022/11/29 11:19:30;;;;;;;33.90;19.35;;;;;;;8.16;83.38;101839.56;5026452;28;20112;-59
2022/11/29 11:21:57;;;;;;;35.30;19.95;;;;;;;8.16;83.41;101838.72;5008762;28;20072;-59
2022/11/29 11:24:47;;;;;;;35.50;20.65;;;;;;;8.15;82.91;101837.88;5020493;28;20036;-59
2022/11/29 11:27:33;;;;;;;32.50;18.80;;;;;;;8.21;83.36;101837.00;5026214;28;20045;-59
2022/11/29 11:30:00;;;;;;;35.42;19.55;;;;;;;8.23;83.29;101850.63;5023743;28;20117;-59
2022/11/29 11:32:26;;;;;;;37.13;20.17;;;;;;;8.22;83.13;101860.00;5032789;28;20033;-59
2022/11/29 11:34:56;;;;;;;35.78;19.83;;;;;;;8.24;83.95;101852.31;5032837;28;20044;-59
2022/11/29 11:37:27;;;;;;;35.78;20.13;;;;;;;8.25;83.48;101848.50;5028896;28;20495;-60
2022/11/29 11:40:19;;;;;;;37.47;21.05;;;;;;;8.27;83.75;101855.53;5030171;28;20030;-59
2022/11/29 11:42:45;;;;;;;34.93;20.67;;;;;;;8.26;82.90;101861.28;5030558;28;20520;-58
2022/11/29 11:45:10;;;;;;;33.78;19.70;;;;;;;8.25;83.69;101854.03;5028476;28;20038;-58
2022/11/29 11:47:42;;;;;;;31.02;19.23;;;;;;;8.25;83.33;101854.91;5029650;28;20025;-58
2022/11/29 11:50:26;;;;;;;30.83;19.58;;;;;;;8.30;83.38;101862.56;5028465;28;20112;-59
2022/11/29 11:52:56;;;;;;;32.33;19.33;;;;;;;8.29;83.06;101870.00;5037028;28;20037;-63
2022/11/29 11:55:28;;;;;;;32.83;19.70;;;;;;;8.29;83.40;101872.78;5047832;28;20037;-58
2022/11/29 11:57:57;;;;;;;35.22;19.48;;;;;;;8.30;83.32;101866.16;5024881;28;20029;-61
2022/11/29 12:00:55;;;;;;;36.25;20.05;;;;;;;8.34;83.22;101874.88;5029961;28;20029;-60
2022/11/29 12:03:30;;;;;;;40.58;20.33;;;;;;;8.30;82.98;101868.94;5025889;28;20139;-60